Nearby METAR Reports

 

NZWN - Wellington Intl, New Zealand
Distance from station: SSE 156km
Updated: Tue, 17-Oct-2017 10:30am NZDT
Clear
Clear
 Wind from N
Wind: N 26 km/h
Temperature: 15°C
Dew Point: 4°C
Humidity: 48%
Barometer: 1017 hPa
Clouds: Clear
Visibility: 10 km
2017/10/16 21:30 NZWN 162130Z AUTO 35014KT 9999 NCD 15/04 Q1017 NOSIG
NZAA - Auckland Intl Ar, New Zealand
Distance from station: N 334km
Updated: Tue, 17-Oct-2017 10:30am NZDT
Overcast
Overcast
 Wind from SW
Wind: SW 31 km/h
Temperature: 14°C
Dew Point: 7°C
Humidity: 63%
Barometer: 1022 hPa
Clouds: Overcast
Visibility: 10 km
Cloud details: Overcast 1097 m
2017/10/16 21:30 NZAA 162130Z AUTO 22017KT 9999 OVC036/// 14/07 Q1022 NOSIG
 
NZWP - Whenuapai (nz-Af, New Zealand
Distance from station: N 359km
Updated: Sun, 10-Sep-2017 10:00am NZST
NOT Current
Rain showers, Mostly cloudy
Rain showers, Mostly cloudy
 Wind from W
Wind: W 28 km/h
Temperature: 8°C
Wind Chill: 4°C
Dew Point: 6°C
Humidity: 87%
Barometer: 996 hPa
Summary: Rain Showers
Clouds: Mostly cloudy
Cloud details: Partly cloudy 701 m
Mostly cloudy 1128 m
2017/09/09 22:00 NZWP 092200Z 26015KT 20KM SHRA SCT023CB BKN037 08/06 Q0996 TEMPO 4000 SHRAGS
NZCH - Christchurch Int, New Zealand
Distance from station: SSW 412km
Updated: Tue, 17-Oct-2017 10:30am NZDT
Clear
Clear
 Wind from NE
Wind: NE 11 km/h
Temperature: 12°C
Dew Point: 5°C
Humidity: 63%
Barometer: 1015 hPa
Clouds: Clear
Visibility: 10 km
2017/10/16 21:30 NZCH 162130Z AUTO 05006KT 020V080 9999 NCD 12/05 Q1015 BECMG 20015G25KT

Metar display script from Saratoga-Weather.org